Time;durP1;ratioP1;P1;durP2;ratioP2;P2;SDS_P1;SDS_P2;PMS_P1;PMS_P2;Temp;Humidity;BMP_temperature;BMP_pressure;BME280_temperature;BME280_humidity;BME280_pressure;Samples;Min_cycle;Max_cycle;Signal;HPM_P1;HPM_P2
2024/02/16 00:01:37;;;;;;;6.35;3.08;;;;;;;11.38;100.00;100912.84;6088527;19;20011;-74
2024/02/16 00:03:44;;;;;;;5.93;2.83;;;;;;;11.36;100.00;100912.03;6087471;19;20027;-75
2024/02/16 00:05:51;;;;;;;6.32;3.30;;;;;;;11.38;100.00;100909.34;6084271;19;20022;-76
2024/02/16 00:07:56;;;;;;;6.80;3.45;;;;;;;11.43;100.00;100907.38;6085604;19;20003;-75
2024/02/16 00:09:59;;;;;;;7.63;3.42;;;;;;;11.40;100.00;100910.13;6082132;19;20018;-76
2024/02/16 00:12:08;;;;;;;6.43;2.88;;;;;;;11.39;100.00;100911.06;6085688;19;20372;-76
2024/02/16 00:14:13;;;;;;;6.25;3.30;;;;;;;11.42;100.00;100914.41;6085778;19;20014;-76
2024/02/16 00:16:17;;;;;;;6.57;2.97;;;;;;;11.33;100.00;100909.53;6087768;19;20002;-75
2024/02/16 00:18:23;;;;;;;7.80;3.38;;;;;;;11.30;100.00;100914.09;6084590;19;20011;-74
2024/02/16 00:20:31;;;;;;;7.22;3.38;;;;;;;11.25;100.00;100911.66;6086947;19;20010;-74
2024/02/16 00:22:40;;;;;;;8.35;3.38;;;;;;;11.25;100.00;100911.66;6083908;19;20018;-74
2024/02/16 00:24:45;;;;;;;6.65;4.05;;;;;;;11.27;100.00;100899.28;6084389;19;20028;-74
2024/02/16 00:26:51;;;;;;;6.65;3.33;;;;;;;11.34;100.00;100905.13;6084539;19;20450;-77
2024/02/16 00:29:00;;;;;;;8.60;3.30;;;;;;;11.33;100.00;100899.03;6083633;19;20027;-75
2024/02/16 00:31:05;;;;;;;6.05;3.25;;;;;;;11.28;100.00;100898.34;6084033;19;20019;-75
2024/02/16 00:33:11;;;;;;;8.10;3.70;;;;;;;11.23;100.00;100908.22;6086655;19;20013;-75
2024/02/16 00:35:16;;;;;;;6.43;3.30;;;;;;;11.34;100.00;100905.97;6086568;19;19999;-75
2024/02/16 00:37:24;;;;;;;6.00;3.22;;;;;;;11.35;100.00;100902.44;6087395;19;20017;-76
2024/02/16 00:39:29;;;;;;;6.45;3.20;;;;;;;11.37;100.00;100897.09;6085038;19;20039;-76
2024/02/16 00:41:37;;;;;;;5.45;3.15;;;;;;;11.43;100.00;100908.22;6085637;19;20006;-74
2024/02/16 00:43:44;;;;;;;6.70;3.67;;;;;;;11.31;100.00;100906.13;6086426;19;20002;-75
2024/02/16 00:45:52;;;;;;;6.45;3.45;;;;;;;11.37;100.00;100892.72;6088062;19;20007;-74
2024/02/16 00:47:55;;;;;;;8.55;3.30;;;;;;;11.37;100.00;100892.72;6087973;19;20006;-75
2024/02/16 00:50:01;;;;;;;7.93;3.28;;;;;;;11.39;100.00;100884.75;6087745;19;20587;-75
2024/02/16 00:52:07;;;;;;;7.93;3.45;;;;;;;11.37;100.00;100887.47;6085992;19;20010;-74
2024/02/16 00:54:13;;;;;;;5.63;3.08;;;;;;;11.34;100.00;100890.19;6086645;19;20011;-74
2024/02/16 00:56:19;;;;;;;6.57;3.10;;;;;;;11.28;100.00;100889.63;6087732;19;20007;-74
2024/02/16 00:58:21;;;;;;;8.23;3.45;;;;;;;11.33;100.00;100883.22;6081598;19;20002;-74
2024/02/16 01:00:26;;;;;;;6.35;3.13;;;;;;;11.33;100.00;100872.72;6083393;19;20081;-74
2024/02/16 01:02:35;;;;;;;7.05;3.45;;;;;;;11.43;100.00;100867.91;6083863;19;20484;-75
2024/02/16 01:04:38;;;;;;;7.50;3.60;;;;;;;11.44;100.00;100866.97;6087219;19;20055;-75
2024/02/16 01:06:43;;;;;;;7.07;3.53;;;;;;;11.28;100.00;100871.19;6087885;19;20038;-75
2024/02/16 01:08:49;;;;;;;5.90;4.00;;;;;;;11.40;100.00;100876.78;6089021;19;20002;-75
2024/02/16 01:10:54;;;;;;;7.43;3.92;;;;;;;11.31;100.00;100879.81;6087635;19;20601;-75
2024/02/16 01:12:59;;;;;;;7.03;3.10;;;;;;;11.32;100.00;100875.38;6093768;19;20023;-76
2024/02/16 01:15:04;;;;;;;7.22;3.40;;;;;;;11.32;100.00;100871.00;6093250;19;19999;-75
2024/02/16 01:17:10;;;;;;;7.70;3.88;;;;;;;11.27;100.00;100865.09;6092557;19;20404;-75
2024/02/16 01:19:15;;;;;;;6.25;3.20;;;;;;;11.21;100.00;100867.97;6088398;19;20036;-75
2024/02/16 01:21:20;;;;;;;7.72;3.65;;;;;;;11.20;100.00;100872.38;6089718;19;20081;-75
2024/02/16 01:23:26;;;;;;;7.65;3.70;;;;;;;11.16;100.00;100864.66;6090255;19;20754;-75
2024/02/16 01:25:28;;;;;;;5.05;3.13;;;;;;;11.23;100.00;100863.50;6088659;19;20010;-75
2024/02/16 01:27:33;;;;;;;8.45;3.47;;;;;;;11.21;100.00;100846.91;6086598;19;20013;-74
2024/02/16 01:29:41;;;;;;;8.05;3.22;;;;;;;11.19;100.00;100836.47;6088259;19;20039;-74
2024/02/16 01:31:46;;;;;;;7.85;3.40;;;;;;;11.17;100.00;100837.47;6086913;19;20007;-74
2024/02/16 01:33:53;;;;;;;5.43;3.45;;;;;;;11.16;100.00;100856.78;6089169;19;20006;-74
2024/02/16 01:36:01;;;;;;;7.00;3.42;;;;;;;11.07;100.00;100865.06;6088264;19;20010;-74
2024/02/16 01:38:09;;;;;;;6.50;3.58;;;;;;;11.14;100.00;100861.28;6086258;19;20014;-74
2024/02/16 01:40:16;;;;;;;7.20;3.60;;;;;;;11.09;100.00;100866.72;6087623;19;20028;-74
2024/02/16 01:42:22;;;;;;;7.03;3.38;;;;;;;11.11;100.00;100866.63;6088498;19;20042;-74
2024/02/16 01:44:27;;;;;;;6.65;3.30;;;;;;;11.06;100.00;100852.81;6081104;19;20006;-74
2024/02/16 01:46:32;;;;;;;7.25;3.55;;;;;;;11.03;100.00;100863.47;6083765;19;20040;-75
2024/02/16 01:48:39;;;;;;;6.38;3.40;;;;;;;10.99;100.00;100857.50;6083391;19;20011;-75
2024/02/16 01:50:46;;;;;;;7.05;3.85;;;;;;;11.00;100.00;100861.84;6084831;19;20074;-75
2024/02/16 01:52:56;;;;;;;6.80;3.30;;;;;;;10.96;100.00;100861.13;6082886;19;20690;-75
2024/02/16 01:54:59;;;;;;;5.97;3.58;;;;;;;10.92;100.00;100849.00;6084184;19;20006;-75
2024/02/16 01:57:04;;;;;;;7.68;3.95;;;;;;;10.94;100.00;100854.22;6084281;19;20019;-74
2024/02/16 01:59:09;;;;;;;7.07;3.60;;;;;;;10.96;100.00;100847.13;6084505;19;20652;-76
2024/02/16 02:01:15;;;;;;;5.97;3.53;;;;;;;10.96;100.00;100853.22;6084634;19;20389;-75
2024/02/16 02:03:20;;;;;;;7.80;3.65;;;;;;;10.99;100.00;100847.84;6083427;19;20017;-75
2024/02/16 02:05:26;;;;;;;6.60;3.60;;;;;;;10.98;100.00;100851.41;6082883;19;20534;-75
2024/02/16 02:07:32;;;;;;;9.52;3.30;;;;;;;10.93;100.00;100850.72;6080806;19;20624;-75
2024/02/16 02:09:40;;;;;;;8.93;3.60;;;;;;;10.95;100.00;100851.53;6082505;19;20009;-75
2024/02/16 02:11:45;;;;;;;8.82;3.53;;;;;;;10.91;100.00;100855.19;6082489;19;20033;-75
2024/02/16 02:13:50;;;;;;;6.00;3.10;;;;;;;11.04;100.00;100855.53;6081475;19;20398;-75
2024/02/16 02:15:57;;;;;;;5.72;3.45;;;;;;;11.02;100.00;100852.13;6085014;19;20013;-76
2024/02/16 02:18:02;;;;;;;8.32;3.90;;;;;;;11.02;100.00;100846.84;6083307;19;20011;-76
2024/02/16 02:20:10;;;;;;;10.05;3.85;;;;;;;10.95;100.00;100851.53;6083242;19;20014;-76
2024/02/16 02:22:20;;;;;;;6.50;3.35;;;;;;;10.97;100.00;100844.41;6085553;19;20021;-76
2024/02/16 02:24:25;;;;;;;6.28;3.45;;;;;;;10.97;100.00;100840.94;6083632;19;20086;-76
2024/02/16 02:26:32;;;;;;;8.43;4.13;;;;;;;10.90;100.00;100845.59;6086449;19;20034;-76
2024/02/16 02:28:40;;;;;;;8.23;3.85;;;;;;;10.97;100.00;100844.41;6077565;19;20089;-75
2024/02/16 02:30:47;;;;;;;5.90;3.40;;;;;;;10.97;100.00;100841.78;6082921;19;20710;-76
2024/02/16 02:32:53;;;;;;;7.65;4.03;;;;;;;10.97;100.00;100840.94;6085205;19;20015;-75
2024/02/16 02:34:59;;;;;;;7.10;4.05;;;;;;;11.03;100.00;100838.03;6080757;19;20004;-75
2024/02/16 02:37:06;;;;;;;8.02;3.13;;;;;;;11.08;100.00;100843.09;6085158;19;20033;-77
2024/02/16 02:39:15;;;;;;;8.10;3.38;;;;;;;11.21;100.00;100839.03;6084955;19;20010;-75
2024/02/16 02:41:20;;;;;;;6.35;3.65;;;;;;;11.18;100.00;100831.28;6082995;19;20106;-76
2024/02/16 02:43:25;;;;;;;6.65;3.33;;;;;;;11.23;100.00;100838.97;6084455;19;20005;-77
2024/02/16 02:45:30;;;;;;;6.10;3.47;;;;;;;11.24;100.00;100833.63;6082503;19;20006;-77
2024/02/16 02:47:35;;;;;;;7.03;3.67;;;;;;;11.18;100.00;100832.13;6083354;19;20110;-77
2024/02/16 02:49:41;;;;;;;7.05;3.20;;;;;;;11.14;100.00;100829.72;6082744;19;20030;-76
2024/02/16 02:51:46;;;;;;;4.60;2.97;;;;;;;11.20;100.00;100830.28;6082837;19;20029;-76
2024/02/16 02:53:53;;;;;;;7.22;3.42;;;;;;;11.27;100.00;100830.91;6080129;19;20058;-75
2024/02/16 02:56:00;;;;;;;7.03;3.30;;;;;;;11.15;100.00;100826.16;6082093;19;20011;-76
2024/02/16 02:58:06;;;;;;;8.02;3.67;;;;;;;11.20;100.00;100819.78;6084246;19;20082;-74
2024/02/16 03:00:13;;;;;;;6.85;3.53;;;;;;;11.24;100.00;100811.75;6081405;19;20003;-76
2024/02/16 03:02:18;;;;;;;6.72;3.70;;;;;;;11.19;100.00;100817.22;6081162;19;20002;-75
2024/02/16 03:04:23;;;;;;;7.88;3.30;;;;;;;11.19;100.00;100817.22;6084735;19;20010;-75
2024/02/16 03:06:31;;;;;;;5.85;3.45;;;;;;;11.27;100.00;100814.22;6078225;19;20039;-75
2024/02/16 03:08:37;;;;;;;5.68;3.53;;;;;;;11.22;100.00;100809.19;6079670;19;20067;-74
2024/02/16 03:10:44;;;;;;;9.07;3.67;;;;;;;11.29;100.00;100805.34;6080842;19;20102;-74
2024/02/16 03:12:49;;;;;;;8.13;3.95;;;;;;;11.30;100.00;100803.59;6082853;19;20002;-76
2024/02/16 03:14:54;;;;;;;7.07;2.88;;;;;;;11.33;100.00;100806.94;6081697;19;20036;-74
2024/02/16 03:16:59;;;;;;;6.97;3.55;;;;;;;11.22;100.00;100806.56;6081636;19;20027;-76
2024/02/16 03:19:08;;;;;;;7.57;3.15;;;;;;;11.26;100.00;100805.50;6082158;19;20010;-74
2024/02/16 03:21:16;;;;;;;6.03;3.15;;;;;;;11.35;100.00;100796.38;6083216;19;20094;-75
2024/02/16 03:23:22;;;;;;;7.70;3.47;;;;;;;11.32;100.00;100802.59;6080429;19;20011;-75
2024/02/16 03:25:30;;;;;;;6.05;3.33;;;;;;;11.34;100.00;100800.75;6083995;19;20029;-75
2024/02/16 03:27:35;;;;;;;5.50;3.10;;;;;;;11.22;100.00;100806.56;6088663;19;20082;-75
2024/02/16 03:29:43;;;;;;;5.72;3.53;;;;;;;11.09;100.00;100808.88;6085927;19;20022;-75
2024/02/16 03:31:48;;;;;;;7.55;3.85;;;;;;;11.17;100.00;100808.53;6085636;19;20376;-75
2024/02/16 03:33:55;;;;;;;10.82;3.78;;;;;;;11.09;100.00;100810.66;6086714;19;20011;-74
2024/02/16 03:36:01;;;;;;;4.72;3.00;;;;;;;11.11;100.00;100809.66;6085535;19;20019;-74
2024/02/16 03:38:07;;;;;;;7.47;3.60;;;;;;;11.10;100.00;100804.47;6085442;19;20010;-75
2024/02/16 03:40:13;;;;;;;7.38;3.78;;;;;;;11.18;100.00;100811.09;6085125;19;20013;-75
2024/02/16 03:42:19;;;;;;;7.60;3.70;;;;;;;11.18;100.00;100802.34;6087502;19;20013;-74
2024/02/16 03:44:26;;;;;;;7.75;3.60;;;;;;;11.13;100.00;100801.69;6087896;19;20415;-75
2024/02/16 03:46:34;;;;;;;5.72;3.05;;;;;;;11.16;100.00;100804.19;6087951;19;20493;-74
2024/02/16 03:48:43;;;;;;;10.30;3.45;;;;;;;11.22;100.00;100798.66;6080070;19;20488;-74
2024/02/16 03:50:48;;;;;;;7.22;3.30;;;;;;;11.19;100.00;100797.03;6088231;19;20018;-76
2024/02/16 03:52:53;;;;;;;7.38;3.83;;;;;;;11.17;100.00;100798.88;6086992;19;20019;-76
2024/02/16 03:55:01;;;;;;;8.82;3.90;;;;;;;11.29;100.00;100813.25;6092327;19;20012;-76
2024/02/16 03:57:09;;;;;;;5.68;3.35;;;;;;;11.31;100.00;100806.16;6091723;19;20006;-76
2024/02/16 03:59:11;;;;;;;7.45;3.90;;;;;;;11.36;100.00;100801.53;6092806;19;20660;-76
2024/02/16 04:01:16;;;;;;;5.65;3.00;;;;;;;11.30;100.00;100804.44;6095764;19;20728;-77
2024/02/16 04:03:26;;;;;;;7.70;3.60;;;;;;;11.42;100.00;100805.66;6095548;19;20039;-77
2024/02/16 04:05:33;;;;;;;5.70;2.90;;;;;;;11.46;100.00;100814.28;6095174;19;20537;-76
2024/02/16 04:07:38;;;;;;;8.10;4.28;;;;;;;11.42;100.00;100809.16;6094289;19;20032;-76
2024/02/16 04:09:43;;;;;;;8.68;3.20;;;;;;;11.35;100.00;100817.41;6094764;19;20018;-77
2024/02/16 04:11:51;;;;;;;8.48;4.25;;;;;;;11.37;100.00;100810.28;6095206;19;20031;-75
2024/02/16 04:13:56;;;;;;;7.88;3.65;;;;;;;11.42;100.00;100814.41;6092832;19;20027;-76
2024/02/16 04:16:01;;;;;;;4.82;3.38;;;;;;;11.45;100.00;100818.69;6091194;19;20010;-75
2024/02/16 04:18:08;;;;;;;8.55;3.63;;;;;;;11.40;100.00;100815.41;6090790;19;20039;-76
2024/02/16 04:20:18;;;;;;;6.57;3.22;;;;;;;11.37;100.00;100808.53;6092282;19;20527;-76
2024/02/16 04:22:24;;;;;;;7.13;3.53;;;;;;;11.46;100.00;100803.78;6088437;19;20385;-76
2024/02/16 04:24:29;;;;;;;8.85;3.85;;;;;;;11.39;100.00;100798.75;6090368;19;20003;-75
2024/02/16 04:26:34;;;;;;;7.03;3.53;;;;;;;11.37;100.00;100805.00;6088176;19;20337;-75
2024/02/16 04:28:40;;;;;;;7.35;3.58;;;;;;;11.36;100.00;100808.59;6088724;19;20002;-75
2024/02/16 04:30:45;;;;;;;9.30;3.92;;;;;;;11.30;100.00;100808.84;6083248;19;20458;-75
2024/02/16 04:32:51;;;;;;;6.63;3.50;;;;;;;11.17;100.00;100811.16;6086696;19;20002;-74
2024/02/16 04:34:55;;;;;;;8.15;4.43;;;;;;;11.24;100.00;100814.38;6083797;19;20007;-76
2024/02/16 04:37:03;;;;;;;8.85;3.67;;;;;;;11.26;100.00;100808.13;6084765;19;20558;-75
2024/02/16 04:39:09;;;;;;;7.28;3.38;;;;;;;11.15;100.00;100813.00;6083996;19;20018;-75
2024/02/16 04:41:15;;;;;;;7.35;3.60;;;;;;;11.14;100.00;100824.47;6084042;19;20046;-75
2024/02/16 04:43:20;;;;;;;6.32;3.53;;;;;;;11.05;100.00;100809.06;6083771;19;20374;-75
2024/02/16 04:45:27;;;;;;;8.18;3.35;;;;;;;11.10;100.00;100812.34;6082740;19;20014;-76
2024/02/16 04:47:32;;;;;;;9.82;3.70;;;;;;;11.09;100.00;100805.38;6085634;19;20461;-77
2024/02/16 04:49:38;;;;;;;6.85;3.47;;;;;;;11.07;100.00;100815.13;6087455;19;20508;-75
2024/02/16 04:51:43;;;;;;;8.02;3.83;;;;;;;11.07;100.00;100817.75;6087046;19;20002;-75
2024/02/16 04:53:50;;;;;;;6.45;3.55;;;;;;;11.03;100.00;100818.78;6082459;19;20100;-74
2024/02/16 04:55:56;;;;;;;8.73;3.38;;;;;;;11.04;100.00;100817.88;6085162;19;20116;-74
2024/02/16 04:58:04;;;;;;;9.32;4.00;;;;;;;10.95;100.00;100817.34;6085775;19;20010;-74
2024/02/16 05:00:12;;;;;;;8.40;3.63;;;;;;;10.93;100.00;100813.94;6085006;19;20471;-74
2024/02/16 05:02:17;;;;;;;8.32;3.60;;;;;;;10.84;100.00;100821.34;6083836;19;20686;-74
2024/02/16 05:04:22;;;;;;;6.93;4.38;;;;;;;10.83;100.00;100819.63;6085801;19;20051;-75
2024/02/16 05:06:27;;;;;;;8.35;3.75;;;;;;;10.82;100.00;100817.91;6084300;19;20002;-75
2024/02/16 05:08:33;;;;;;;7.18;3.53;;;;;;;10.75;100.00;100812.91;6084466;19;20006;-76
2024/02/16 05:10:41;;;;;;;8.50;3.35;;;;;;;10.76;100.00;100813.78;6085193;19;20316;-76
2024/02/16 05:12:46;;;;;;;7.22;3.60;;;;;;;10.86;100.00;100824.75;6080588;19;20014;-74
2024/02/16 05:14:52;;;;;;;10.10;4.05;;;;;;;10.90;100.00;100827.22;6084838;19;20384;-77
2024/02/16 05:16:54;;;;;;;8.52;4.25;;;;;;;10.89;100.00;100829.88;6085087;19;20543;-74
2024/02/16 05:19:03;;;;;;;8.35;3.40;;;;;;;10.84;100.00;100832.69;6085694;19;20010;-76
2024/02/16 05:21:09;;;;;;;10.05;4.00;;;;;;;10.90;100.00;100826.31;6085125;19;20011;-75
2024/02/16 05:23:14;;;;;;;7.93;3.60;;;;;;;10.94;100.00;100822.66;6084570;19;20034;-74
2024/02/16 05:25:20;;;;;;;8.48;3.88;;;;;;;10.87;100.00;100827.31;6085387;19;20507;-76
2024/02/16 05:27:28;;;;;;;9.68;4.10;;;;;;;10.93;100.00;100834.97;6084994;19;20006;-77
2024/02/16 05:29:30;;;;;;;7.55;3.65;;;;;;;10.91;100.00;100828.91;6085048;19;19998;-76
2024/02/16 05:31:35;;;;;;;8.23;4.25;;;;;;;10.96;100.00;100829.56;6082185;19;21525;-76
2024/02/16 05:33:40;;;;;;;11.07;4.63;;;;;;;10.98;100.00;100829.50;6081281;19;20018;-76
2024/02/16 05:35:51;;;;;;;6.28;3.53;;;;;;;10.92;100.00;100829.75;6083963;19;20039;-75
2024/02/16 05:37:57;;;;;;;8.45;4.03;;;;;;;10.95;100.00;100829.63;6085465;19;20015;-75
2024/02/16 05:40:18;;;;;;;7.78;3.88;;;;;;;10.98;100.00;100837.41;6084335;19;20018;-76
2024/02/16 05:42:24;;;;;;;8.73;4.20;;;;;;;11.01;100.00;100837.28;6084708;19;20007;-75
2024/02/16 05:44:33;;;;;;;11.20;4.78;;;;;;;10.97;100.00;100841.78;6085379;19;20013;-75
2024/02/16 05:46:37;;;;;;;6.10;3.83;;;;;;;11.02;100.00;100849.47;6084595;19;20010;-76
2024/02/16 05:48:42;;;;;;;8.02;3.95;;;;;;;10.97;100.00;100839.16;6082399;19;20002;-76
2024/02/16 05:50:47;;;;;;;9.13;4.00;;;;;;;10.95;100.00;100841.03;6085401;19;20003;-76
2024/02/16 05:52:53;;;;;;;6.55;3.28;;;;;;;10.90;100.00;100844.72;6079808;19;20100;-75
2024/02/16 05:54:58;;;;;;;10.70;4.03;;;;;;;10.86;100.00;100846.66;6083314;19;20074;-75
2024/02/16 05:57:04;;;;;;;8.15;4.43;;;;;;;10.95;100.00;100845.41;6080952;19;20542;-76
2024/02/16 05:59:10;;;;;;;10.38;4.65;;;;;;;10.88;100.00;100850.06;6082951;19;20297;-75
2024/02/16 06:01:18;;;;;;;11.50;4.38;;;;;;;10.87;100.00;100853.59;6083802;19;20013;-74
2024/02/16 06:03:24;;;;;;;8.70;4.05;;;;;;;10.83;100.00;100849.41;6087814;19;20014;-74
2024/02/16 06:05:30;;;;;;;8.75;4.25;;;;;;;10.89;100.00;100854.41;6083204;19;20181;-76
2024/02/16 06:07:32;;;;;;;8.35;5.03;;;;;;;10.79;100.00;100855.69;6084487;19;20667;-76
2024/02/16 06:09:38;;;;;;;9.07;3.92;;;;;;;10.83;100.00;100854.66;6083707;19;20014;-76
2024/02/16 06:11:43;;;;;;;7.03;4.03;;;;;;;10.84;100.00;100855.50;6083922;19;20304;-76
2024/02/16 06:13:49;;;;;;;7.95;4.10;;;;;;;10.88;100.00;100852.69;6081489;19;20006;-75
2024/02/16 06:15:54;;;;;;;12.25;4.57;;;;;;;10.88;100.00;100852.69;6083698;19;20015;-74
2024/02/16 06:18:02;;;;;;;9.45;4.00;;;;;;;10.90;100.00;100853.50;6084379;19;20688;-75
2024/02/16 06:20:09;;;;;;;10.07;5.03;;;;;;;10.88;100.00;100857.97;6083459;19;20520;-76
2024/02/16 06:22:14;;;;;;;6.85;4.05;;;;;;;10.89;100.00;100862.28;6084455;19;20475;-75
2024/02/16 06:24:20;;;;;;;7.07;3.80;;;;;;;10.91;100.00;100855.19;6083720;19;20756;-75
2024/02/16 06:26:25;;;;;;;8.70;3.95;;;;;;;10.90;100.00;100848.25;6080401;19;20014;-75
2024/02/16 06:28:30;;;;;;;7.80;4.00;;;;;;;10.95;100.00;100861.16;6084335;19;20019;-76
2024/02/16 06:30:36;;;;;;;9.25;4.32;;;;;;;10.92;100.00;100862.16;6084595;19;20019;-76
2024/02/16 06:32:43;;;;;;;10.02;4.15;;;;;;;10.97;100.00;100861.97;6086003;19;20014;-75
2024/02/16 06:34:50;;;;;;;9.00;3.97;;;;;;;11.07;100.00;100870.34;6082402;19;20011;-78
2024/02/16 06:36:56;;;;;;;9.43;4.70;;;;;;;11.13;100.00;100865.66;6082061;19;20006;-75
2024/02/16 06:38:59;;;;;;;7.93;4.40;;;;;;;11.17;100.00;100867.25;6079171;19;20051;-75
2024/02/16 06:41:07;;;;;;;9.40;4.18;;;;;;;11.20;100.00;100871.53;6084621;19;20044;-76
2024/02/16 06:43:12;;;;;;;8.95;4.70;;;;;;;11.19;100.00;100881.19;6086530;19;20043;-77
2024/02/16 06:45:17;;;;;;;7.45;4.28;;;;;;;11.18;100.00;100878.63;6086773;19;20002;-78
2024/02/16 06:47:23;;;;;;;11.80;4.78;;;;;;;11.18;100.00;100883.88;6086560;19;20083;-77
2024/02/16 06:49:28;;;;;;;8.65;4.65;;;;;;;11.27;100.00;100883.50;6085736;19;20022;-77
2024/02/16 06:51:37;;;;;;;8.90;4.82;;;;;;;11.27;100.00;100888.78;6090731;19;20043;-75
2024/02/16 06:53:42;;;;;;;9.00;4.95;;;;;;;11.35;100.00;100891.91;6084767;19;20009;-76
2024/02/16 06:55:47;;;;;;;8.32;4.03;;;;;;;11.42;100.00;100893.34;6088186;19;20010;-76
2024/02/16 06:57:52;;;;;;;8.40;4.68;;;;;;;11.37;100.00;100894.47;6088344;19;20090;-76
2024/02/16 06:59:57;;;;;;;11.52;4.57;;;;;;;11.31;100.00;100890.31;6087804;19;20006;-75
2024/02/16 07:02:03;;;;;;;9.48;5.03;;;;;;;11.30;100.00;100899.16;6093791;19;20014;-75
2024/02/16 07:04:09;;;;;;;11.55;4.80;;;;;;;11.31;100.00;100894.75;6091010;19;20007;-76
2024/02/16 07:06:14;;;;;;;9.48;4.50;;;;;;;11.38;100.00;100910.19;6093259;19;20014;-76
2024/02/16 07:08:23;;;;;;;10.25;4.53;;;;;;;11.35;100.00;100907.72;6092935;19;20025;-76
2024/02/16 07:10:31;;;;;;;8.07;4.40;;;;;;;11.38;100.00;100914.63;6091051;19;20003;-76
2024/02/16 07:12:36;;;;;;;8.65;4.50;;;;;;;11.41;100.00;100917.97;6090699;19;20023;-76
2024/02/16 07:14:43;;;;;;;8.52;4.20;;;;;;;11.43;100.00;100913.50;6091368;19;20011;-76
2024/02/16 07:16:59;;;;;;;11.80;4.57;;;;;;;11.47;100.00;100921.25;6088322;19;20010;-74
2024/02/16 07:19:02;;;;;;;9.18;4.60;;;;;;;11.55;100.00;100929.66;5981647;19;2004584;-76
2024/02/16 07:21:13;;;;;;;9.90;4.75;;;;;;;11.59;100.00;100929.47;6081682;19;20003;-75
2024/02/16 07:23:22;;;;;;;11.63;4.55;;;;;;;11.56;100.00;100934.03;6087561;19;20014;-76
2024/02/16 07:25:24;;;;;;;8.20;4.38;;;;;;;11.59;100.00;100939.16;6086788;19;20145;-75
2024/02/16 07:27:30;;;;;;;10.23;4.47;;;;;;;11.66;100.00;100940.59;6088561;19;20559;-78
2024/02/16 07:29:38;;;;;;;9.80;4.68;;;;;;;11.62;100.00;100953.03;6086582;19;20479;-76
2024/02/16 07:31:43;;;;;;;8.95;4.38;;;;;;;11.59;100.00;100949.69;6083347;19;20122;-76
2024/02/16 07:33:48;;;;;;;7.85;4.20;;;;;;;11.66;100.00;100959.00;6087913;19;20372;-77
2024/02/16 07:36:00;;;;;;;10.30;4.72;;;;;;;11.63;100.00;100959.16;6087142;19;20002;-75
2024/02/16 07:38:04;;;;;;;8.55;4.32;;;;;;;11.64;100.00;100961.72;6087422;19;20468;-75
2024/02/16 07:40:18;;;;;;;9.77;5.18;;;;;;;11.81;100.00;100974.16;6084685;19;20037;-75
2024/02/16 07:42:27;;;;;;;11.63;5.07;;;;;;;11.80;100.00;100972.44;6084603;19;20056;-75
2024/02/16 07:44:40;;;;;;;8.43;4.85;;;;;;;11.83;100.00;100972.31;6084559;19;20365;-75
2024/02/16 07:46:47;;;;;;;8.45;4.47;;;;;;;11.88;100.00;100973.94;6085802;19;20034;-75
2024/02/16 07:48:52;;;;;;;8.55;4.78;;;;;;;11.89;100.00;100981.75;6085336;19;20373;-75
2024/02/16 07:51:03;;;;;;;7.70;4.10;;;;;;;11.95;100.00;100976.19;6086113;19;20011;-75
2024/02/16 07:53:12;;;;;;;8.15;4.35;;;;;;;12.03;100.00;100978.50;6077880;19;20035;-75
2024/02/16 07:55:24;;;;;;;8.93;4.68;;;;;;;12.04;100.00;100985.50;6086248;19;20082;-75
2024/02/16 07:57:37;;;;;;;10.95;4.70;;;;;;;12.07;100.00;100985.34;6084723;19;20025;-75
2024/02/16 07:59:45;;;;;;;10.32;4.18;;;;;;;12.04;100.00;100985.50;6083102;19;20014;-76
2024/02/16 08:01:53;;;;;;;11.75;5.43;;;;;;;12.08;100.00;100993.19;6071437;19;20130;-76
2024/02/16 08:03:59;;;;;;;11.30;5.10;;;;;;;12.02;100.00;101008.41;6082660;19;20007;-76
2024/02/16 08:06:09;;;;;;;8.95;4.47;;;;;;;11.98;100.00;100999.78;6086668;19;20643;-76
2024/02/16 08:08:18;;;;;;;10.25;5.00;;;;;;;11.98;100.00;100996.28;6083376;19;20364;-75
2024/02/16 08:10:28;;;;;;;11.05;5.50;;;;;;;11.95;100.00;100999.91;6086782;19;20010;-75
2024/02/16 08:12:35;;;;;;;8.38;4.30;;;;;;;11.90;100.00;100999.28;6085076;19;20002;-77
2024/02/16 08:14:41;;;;;;;10.73;4.70;;;;;;;11.94;100.00;101005.25;6086045;19;20505;-77
2024/02/16 08:16:46;;;;;;;10.35;4.80;;;;;;;11.98;100.00;101007.69;6084185;19;20003;-76
2024/02/16 08:18:51;;;;;;;9.82;4.65;;;;;;;11.97;100.00;101003.34;6085104;19;20345;-76
2024/02/16 08:20:56;;;;;;;9.00;4.80;;;;;;;11.98;100.00;101012.09;6083579;19;20011;-76
2024/02/16 08:23:01;;;;;;;8.52;4.72;;;;;;;12.02;100.00;101018.94;6082369;19;20082;-76
2024/02/16 08:25:07;;;;;;;11.57;4.60;;;;;;;12.01;100.00;101020.72;6086981;19;20540;-77
2024/02/16 08:27:12;;;;;;;10.10;5.32;;;;;;;12.00;100.00;101033.94;6088103;19;20007;-76
2024/02/16 08:29:20;;;;;;;10.10;4.97;;;;;;;12.01;100.00;101041.78;6084308;19;20007;-77
2024/02/16 08:31:25;;;;;;;9.75;4.32;;;;;;;12.00;100.00;101031.31;6087449;19;20313;-77
2024/02/16 08:33:31;;;;;;;11.18;4.78;;;;;;;11.96;100.00;101032.38;6087650;19;20294;-76
2024/02/16 08:35:37;;;;;;;9.63;4.90;;;;;;;11.92;100.00;101041.31;6085971;19;20014;-76
2024/02/16 08:37:46;;;;;;;10.77;5.65;;;;;;;11.86;100.00;101032.75;6085152;19;20010;-77
2024/02/16 08:39:52;;;;;;;10.55;4.95;;;;;;;11.81;100.00;101042.59;6088445;19;20011;-76
2024/02/16 08:41:57;;;;;;;10.93;5.13;;;;;;;11.82;100.00;101043.44;6088438;19;20006;-76
2024/02/16 08:44:04;;;;;;;12.27;5.20;;;;;;;11.77;100.00;101043.66;6085914;19;20070;-77
2024/02/16 08:46:10;;;;;;;12.60;6.40;;;;;;;11.79;100.00;101048.84;6088120;19;20034;-76
2024/02/16 08:48:15;;;;;;;9.50;5.15;;;;;;;11.79;100.00;101060.22;6087186;19;20044;-77
2024/02/16 08:50:23;;;;;;;10.10;5.78;;;;;;;11.89;100.00;101066.00;6087371;19;20035;-77
2024/02/16 08:52:29;;;;;;;11.20;4.90;;;;;;;11.90;100.00;101083.53;6082861;19;20012;-77
2024/02/16 08:54:34;;;;;;;10.00;5.45;;;;;;;11.92;100.00;101080.81;6085977;19;20097;-77
2024/02/16 08:56:40;;;;;;;9.63;5.97;;;;;;;11.92;100.00;101075.56;6090076;19;20439;-77
2024/02/16 08:58:46;;;;;;;10.63;4.70;;;;;;;11.97;100.00;101089.41;6089640;19;20497;-78
2024/02/16 09:00:53;;;;;;;9.40;5.60;;;;;;;11.98;100.00;101089.34;6089722;19;20007;-75
2024/02/16 09:03:02;;;;;;;11.63;4.80;;;;;;;11.99;100.00;101093.69;6086758;19;20401;-74
2024/02/16 09:05:11;;;;;;;11.50;5.28;;;;;;;11.96;100.00;101104.34;6086378;19;20437;-76
2024/02/16 09:07:16;;;;;;;8.43;4.50;;;;;;;11.93;100.00;101103.59;6087831;19;20011;-79
2024/02/16 09:09:22;;;;;;;8.68;4.63;;;;;;;11.84;100.00;101116.19;6086473;19;20021;-75
2024/02/16 09:11:27;;;;;;;8.80;5.30;;;;;;;11.84;100.00;101113.56;6087115;19;20011;-75
2024/02/16 09:13:33;;;;;;;9.48;5.40;;;;;;;11.83;100.00;101116.28;6085704;19;20022;-74
2024/02/16 09:15:45;;;;;;;10.73;5.03;;;;;;;11.79;100.00;101118.16;6087712;19;20597;-75
2024/02/16 09:17:53;;;;;;;11.10;5.30;;;;;;;11.81;100.00;101111.06;6086943;19;20014;-75
2024/02/16 09:19:58;;;;;;;15.45;5.35;;;;;;;11.73;100.00;101110.53;6087228;19;20011;-76
2024/02/16 09:22:06;;;;;;;10.80;5.30;;;;;;;11.79;100.00;101122.56;6091321;19;20160;-75
2024/02/16 09:24:17;;;;;;;10.27;6.20;;;;;;;11.68;100.00;101130.91;6087077;19;20023;-78
2024/02/16 09:26:24;;;;;;;11.13;5.60;;;;;;;11.65;100.00;101137.16;6091393;19;20015;-76
2024/02/16 09:28:30;;;;;;;13.32;5.40;;;;;;;11.67;100.00;101141.53;6091333;19;20003;-77
2024/02/16 09:30:35;;;;;;;8.80;4.95;;;;;;;11.62;100.00;101141.69;6091192;19;20015;-77
2024/02/16 09:32:42;;;;;;;10.35;5.05;;;;;;;11.62;100.00;101153.06;6091575;19;20469;-76
2024/02/16 09:34:50;;;;;;;9.73;5.22;;;;;;;11.60;100.00;101160.19;6090093;19;20011;-77
2024/02/16 09:36:56;;;;;;;14.82;6.72;;;;;;;11.56;100.00;101168.28;6086818;19;20038;-77
2024/02/16 09:39:00;;;;;;;11.77;6.68;;;;;;;11.57;100.00;101164.72;6091145;19;20094;-76